createdAt,value
2023-02-26T00:00:12.488Z,102181.06
2023-02-26T00:02:16.308Z,102188.06
2023-02-26T00:04:19.722Z,102192.41
2023-02-26T00:06:24.378Z,102192.34
2023-02-26T00:08:28.379Z,102188.88
2023-02-26T00:10:32.118Z,102195.06
2023-02-26T00:12:37.127Z,102192.38
2023-02-26T00:14:41.939Z,102198.50
2023-02-26T00:16:52.031Z,102197.66
2023-02-26T00:18:56.168Z,102197.69
2023-02-26T00:21:00.239Z,102198.63
2023-02-26T00:23:04.703Z,102199.47
2023-02-26T00:25:09.383Z,102203.03
2023-02-26T00:27:13.598Z,102203.94
2023-02-26T00:29:17.815Z,102202.25
2023-02-26T00:31:25.084Z,102202.28
2023-02-26T00:33:31.068Z,102204.91
2023-02-26T00:35:36.050Z,102206.75
2023-02-26T00:37:59.721Z,102205.88
2023-02-26T00:40:16.766Z,102202.44
2023-02-26T00:42:21.057Z,102207.69
2023-02-26T00:44:25.102Z,102213.88
2023-02-26T00:46:39.993Z,102210.34
2023-02-26T00:48:55.563Z,102200.75
2023-02-26T00:51:08.203Z,102201.63
2023-02-26T00:53:19.117Z,102203.34
2023-02-26T00:55:22.978Z,102204.22
2023-02-26T00:57:26.866Z,102208.66
2023-02-26T00:59:30.540Z,102210.38
2023-02-26T01:01:34.422Z,102211.31
2023-02-26T01:03:39.009Z,102209.53
2023-02-26T01:05:44.852Z,102206.94
2023-02-26T01:07:55.556Z,102207.03
2023-02-26T01:09:59.419Z,102214.91
2023-02-26T01:12:07.528Z,102210.50
2023-02-26T01:14:11.393Z,102214.91
2023-02-26T01:16:21.890Z,102215.78
2023-02-26T01:18:30.247Z,102215.84
2023-02-26T01:20:41.076Z,102215.84
2023-02-26T01:22:52.092Z,102211.38
2023-02-26T01:25:02.968Z,102223.72
2023-02-26T01:27:06.806Z,102217.56
2023-02-26T01:29:10.973Z,102217.56
2023-02-26T01:31:36.150Z,102215.84
2023-02-26T01:33:45.953Z,102223.78
2023-02-26T01:35:51.734Z,102221.97
2023-02-26T01:38:03.162Z,102219.34
2023-02-26T01:40:37.569Z,102214.13
2023-02-26T01:42:47.214Z,102209.75
2023-02-26T01:45:00.863Z,102229.03
2023-02-26T01:47:15.905Z,102223.78
2023-02-26T01:49:21.955Z,102226.41
2023-02-26T01:51:46.648Z,102223.78
2023-02-26T01:53:51.317Z,102213.31
2023-02-26T01:55:58.695Z,102220.38
2023-02-26T01:58:03.830Z,102211.72
2023-02-26T02:00:08.866Z,102210.88
2023-02-26T02:02:21.926Z,102221.50
2023-02-26T02:04:26.884Z,102211.94
2023-02-26T02:06:32.167Z,102214.66
2023-02-26T02:08:37.449Z,102218.22
2023-02-26T02:10:45.538Z,102217.44
2023-02-26T02:12:57.445Z,102220.13
2023-02-26T02:15:11.249Z,102215.78
2023-02-26T02:17:20.866Z,102226.38
2023-02-26T02:19:44.735Z,102230.78
2023-02-26T02:22:03.573Z,102247.44
2023-02-26T02:24:13.300Z,102237.84
2023-02-26T02:26:47.610Z,102240.50
2023-02-26T02:29:09.930Z,102240.56
2023-02-26T02:31:19.028Z,102241.50
2023-02-26T02:33:28.819Z,102243.25
2023-02-26T02:35:39.947Z,102244.19
2023-02-26T02:37:47.812Z,102251.22
2023-02-26T02:39:55.814Z,102255.63
2023-02-26T02:42:03.636Z,102254.72
2023-02-26T02:44:13.770Z,102240.75
2023-02-26T02:46:22.498Z,102246.84
2023-02-26T02:48:32.530Z,102256.50
2023-02-26T02:50:40.174Z,102258.28
2023-02-26T02:52:49.890Z,102256.53
2023-02-26T02:54:57.761Z,102269.66
2023-02-26T02:57:05.828Z,102268.78
2023-02-26T02:59:17.753Z,102266.16
2023-02-26T03:01:26.736Z,102261.72
2023-02-26T03:03:36.781Z,102262.59
2023-02-26T03:05:40.073Z,102261.63
2023-02-26T03:07:47.996Z,102265.09
2023-02-26T03:09:51.626Z,102258.88
2023-02-26T03:11:54.898Z,102263.19
2023-02-26T03:13:58.946Z,102263.13
2023-02-26T03:16:26.226Z,102266.56
2023-02-26T03:18:42.973Z,102272.59
2023-02-26T03:20:57.363Z,102263.81
2023-02-26T03:23:08.634Z,102268.16
2023-02-26T03:25:13.945Z,102267.22
2023-02-26T03:27:26.592Z,102268.97
2023-02-26T03:29:39.523Z,102268.94
2023-02-26T03:31:54.190Z,102265.44
2023-02-26T03:34:03.211Z,102262.81
2023-02-26T03:36:13.313Z,102264.59
2023-02-26T03:38:38.726Z,102266.41
2023-02-26T03:40:47.350Z,102269.91
2023-02-26T03:42:56.781Z,102263.88
2023-02-26T03:45:07.013Z,102266.50
2023-02-26T03:47:16.011Z,102270.94
2023-02-26T03:49:28.361Z,102281.44
2023-02-26T03:51:32.523Z,102277.00
2023-02-26T03:54:10.417Z,102282.22
2023-02-26T03:56:21.928Z,102284.84
2023-02-26T03:58:31.941Z,102273.47
2023-02-26T04:01:04.476Z,102283.94
2023-02-26T04:03:16.019Z,102284.72
2023-02-26T04:05:25.043Z,102279.41
2023-02-26T04:07:30.004Z,102288.97
2023-02-26T04:09:33.717Z,102281.94
2023-02-26T04:11:39.090Z,102291.56
2023-02-26T04:13:42.624Z,102290.66
2023-02-26T04:15:46.203Z,102284.53
2023-02-26T04:17:50.634Z,102293.31
2023-02-26T04:19:54.512Z,102298.56
2023-02-26T04:21:59.672Z,102299.44
2023-02-26T04:24:03.037Z,102303.78
2023-02-26T04:26:07.004Z,102299.38
2023-02-26T04:28:12.677Z,102307.25
2023-02-26T04:30:16.750Z,102303.72
2023-02-26T04:32:20.549Z,102299.28
2023-02-26T04:34:24.455Z,102302.78
2023-02-26T04:36:29.906Z,102302.75
2023-02-26T04:38:36.903Z,102301.91
2023-02-26T04:40:41.434Z,102308.03
2023-02-26T04:42:48.738Z,102306.25
2023-02-26T04:44:57.937Z,102306.25
2023-02-26T04:47:02.839Z,102311.56
2023-02-26T04:49:07.535Z,102322.09
2023-02-26T04:51:12.372Z,102311.56
2023-02-26T04:53:16.010Z,102314.22
2023-02-26T04:55:21.212Z,102315.09
2023-02-26T04:57:24.881Z,102318.63
2023-02-26T04:59:28.787Z,102315.09
2023-02-26T05:01:34.298Z,102325.59
2023-02-26T05:03:38.097Z,102324.72
2023-02-26T05:05:41.747Z,102322.13
2023-02-26T05:07:45.349Z,102330.88
2023-02-26T05:09:48.874Z,102331.72
2023-02-26T05:11:53.974Z,102338.72
2023-02-26T05:13:57.106Z,102336.97
2023-02-26T05:16:00.852Z,102340.50
2023-02-26T05:18:05.642Z,102339.59
2023-02-26T05:20:11.350Z,102335.22
2023-02-26T05:22:15.041Z,102346.63
2023-02-26T05:24:18.670Z,102350.16
2023-02-26T05:26:22.565Z,102343.97
2023-02-26T05:28:28.600Z,102358.88
2023-02-26T05:30:32.269Z,102349.25
2023-02-26T05:32:35.933Z,102350.13
2023-02-26T05:34:39.408Z,102351.84
2023-02-26T05:36:42.922Z,102348.38
2023-02-26T05:38:46.493Z,102351.84
2023-02-26T05:40:50.127Z,102346.59
2023-02-26T05:42:53.708Z,102357.13
2023-02-26T05:44:59.116Z,102355.38
2023-02-26T05:47:02.943Z,102362.38
2023-02-26T05:49:06.616Z,102363.25
2023-02-26T05:51:10.336Z,102367.63
2023-02-26T05:53:13.807Z,102370.25
2023-02-26T05:55:18.360Z,102370.25
2023-02-26T05:57:21.982Z,102367.59
2023-02-26T05:59:25.959Z,102369.34
2023-02-26T06:01:31.231Z,102371.97
2023-02-26T06:03:35.063Z,102379.00
2023-02-26T06:05:38.631Z,102376.41
2023-02-26T06:07:42.255Z,102385.09
2023-02-26T06:09:46.316Z,102380.78
2023-02-26T06:11:50.227Z,102391.25
2023-02-26T06:13:53.777Z,102386.84
2023-02-26T06:15:57.338Z,102385.09
2023-02-26T06:18:02.369Z,102390.38
2023-02-26T06:20:06.663Z,102387.75
2023-02-26T06:22:10.105Z,102388.66
2023-02-26T06:24:13.686Z,102387.75
2023-02-26T06:26:17.237Z,102393.91
2023-02-26T06:28:21.145Z,102393.91
2023-02-26T06:30:25.217Z,102394.78
2023-02-26T06:32:30.649Z,102393.00
2023-02-26T06:34:36.018Z,102400.84
2023-02-26T06:36:39.338Z,102400.88
2023-02-26T06:38:45.254Z,102397.38
2023-02-26T06:40:49.580Z,102400.88
2023-02-26T06:42:53.381Z,102413.13
2023-02-26T06:44:57.663Z,102403.47
2023-02-26T06:47:01.263Z,102400.84
2023-02-26T06:49:04.876Z,102399.97
2023-02-26T06:51:10.449Z,102409.63
2023-02-26T06:53:14.210Z,102407.81
2023-02-26T06:55:18.237Z,102412.19
2023-02-26T06:57:21.862Z,102416.59
2023-02-26T06:59:25.591Z,102417.41
2023-02-26T07:01:29.253Z,102418.31
2023-02-26T07:03:32.936Z,102413.06
2023-02-26T07:05:36.509Z,102422.69
2023-02-26T07:07:41.568Z,102422.72
2023-02-26T07:09:46.188Z,102427.09
2023-02-26T07:11:50.005Z,102435.00
2023-02-26T07:13:53.822Z,102440.25
2023-02-26T07:15:57.415Z,102443.72
2023-02-26T07:18:01.438Z,102447.25
2023-02-26T07:20:10.338Z,102451.63
2023-02-26T07:22:14.061Z,102457.78
2023-02-26T07:24:19.363Z,102456.94
2023-02-26T07:26:23.185Z,102465.69
2023-02-26T07:28:27.013Z,102468.31
2023-02-26T07:30:31.355Z,102475.34
2023-02-26T07:32:35.425Z,102479.72
2023-02-26T07:34:38.968Z,102488.44
2023-02-26T07:36:42.679Z,102488.41
2023-02-26T07:38:46.236Z,102484.97
2023-02-26T07:40:51.310Z,102484.03
2023-02-26T07:42:54.986Z,102481.41
2023-02-26T07:44:59.437Z,102486.69
2023-02-26T07:47:02.983Z,102487.59
2023-02-26T07:49:06.857Z,102504.22
2023-02-26T07:51:11.331Z,102497.19
2023-02-26T07:53:15.444Z,102501.56
2023-02-26T07:55:19.132Z,102506.00
2023-02-26T07:57:24.148Z,102505.94
2023-02-26T07:59:27.837Z,102517.31
2023-02-26T08:01:31.625Z,102516.44
2023-02-26T08:03:35.112Z,102518.19
2023-02-26T08:05:38.588Z,102514.66
2023-02-26T08:07:42.101Z,102519.09
2023-02-26T08:09:45.698Z,102517.31
2023-02-26T08:11:49.817Z,102521.69
2023-02-26T08:13:55.383Z,102522.56
2023-02-26T08:15:58.965Z,102536.59
2023-02-26T08:18:02.603Z,102536.56
2023-02-26T08:20:06.966Z,102547.06
2023-02-26T08:22:10.469Z,102547.00
2023-02-26T08:24:14.486Z,102554.91
2023-02-26T08:26:18.209Z,102558.38
2023-02-26T08:28:22.306Z,102553.13
2023-02-26T08:30:28.489Z,102553.97
2023-02-26T08:32:32.198Z,102558.34
2023-02-26T08:34:35.784Z,102549.59
2023-02-26T08:36:39.546Z,102561.84
2023-02-26T08:38:43.102Z,102566.19
2023-02-26T08:40:47.010Z,102567.94
2023-02-26T08:42:50.575Z,102574.03
2023-02-26T08:44:54.635Z,102574.88
2023-02-26T08:47:00.304Z,102581.00
2023-02-26T08:49:04.404Z,102591.53
2023-02-26T08:51:08.352Z,102590.66
2023-02-26T08:53:12.129Z,102589.78
2023-02-26T08:55:15.677Z,102582.78
2023-02-26T08:57:20.065Z,102585.38
2023-02-26T08:59:23.972Z,102587.97
2023-02-26T09:01:28.497Z,102591.44
2023-02-26T09:03:34.303Z,102591.44
2023-02-26T09:05:39.391Z,102593.16
2023-02-26T09:07:44.127Z,102594.03
2023-02-26T09:09:48.348Z,102593.09
2023-02-26T09:11:52.586Z,102586.03
2023-02-26T09:13:56.251Z,102588.66
2023-02-26T09:16:00.635Z,102594.81
2023-02-26T09:18:05.050Z,102599.25
2023-02-26T09:20:12.382Z,102601.06
2023-02-26T09:22:16.136Z,102603.84
2023-02-26T09:24:20.228Z,102611.00
2023-02-26T09:26:24.273Z,102610.22
2023-02-26T09:28:28.216Z,102606.81
2023-02-26T09:30:32.253Z,102608.66
2023-02-26T09:32:36.009Z,102612.16
2023-02-26T09:34:41.029Z,102618.38
2023-02-26T09:36:47.156Z,102616.69
2023-02-26T09:38:51.152Z,102633.34
2023-02-26T09:40:59.029Z,102634.16
2023-02-26T09:43:13.856Z,102637.56
2023-02-26T09:45:29.048Z,102643.63
2023-02-26T09:47:41.952Z,102644.38
2023-02-26T09:49:55.712Z,102638.81
2023-02-26T09:52:07.484Z,102636.81
2023-02-26T09:54:19.664Z,102631.50
2023-02-26T09:56:28.201Z,102637.59
2023-02-26T09:58:34.146Z,102641.97
2023-02-26T10:00:43.740Z,102633.19
2023-02-26T10:02:57.038Z,102649.78
2023-02-26T10:05:14.388Z,102655.09
2023-02-26T10:07:30.750Z,102655.91
2023-02-26T10:09:47.552Z,102656.75
2023-02-26T10:11:57.953Z,102663.72
2023-02-26T10:14:07.946Z,102669.81
2023-02-26T10:16:14.638Z,102676.75
2023-02-26T10:18:24.517Z,102678.47
2023-02-26T10:20:36.816Z,102680.28
2023-02-26T10:22:52.296Z,102687.34
2023-02-26T10:25:04.012Z,102689.06
2023-02-26T10:27:17.495Z,102696.09
2023-02-26T10:29:35.238Z,102696.09
2023-02-26T10:31:50.697Z,102695.22
2023-02-26T10:34:03.509Z,102699.56
2023-02-26T10:36:23.153Z,102699.41
2023-02-26T10:38:33.024Z,102712.41
2023-02-26T10:40:44.114Z,102714.13
2023-02-26T10:42:52.232Z,102710.44
2023-02-26T10:45:18.561Z,102712.22
2023-02-26T10:47:31.155Z,102713.13
2023-02-26T10:49:46.130Z,102704.28
2023-02-26T10:51:53.013Z,102709.53
2023-02-26T10:54:02.154Z,102701.66
2023-02-26T10:56:12.019Z,102706.03
2023-02-26T10:58:18.331Z,102714.84
2023-02-26T11:00:23.969Z,102699.50
2023-02-26T11:02:38.250Z,102700.91
2023-02-26T11:04:42.481Z,102710.66
2023-02-26T11:06:51.265Z,102723.88
2023-02-26T11:08:59.262Z,102726.50
2023-02-26T11:11:04.652Z,102725.72
2023-02-26T11:13:08.519Z,102727.63
2023-02-26T11:15:15.877Z,102724.25
2023-02-26T11:17:22.558Z,102727.78
2023-02-26T11:19:30.214Z,102721.78
2023-02-26T11:21:39.683Z,102720.06
2023-02-26T11:23:45.593Z,102725.25
2023-02-26T11:25:55.993Z,102720.00
2023-02-26T11:28:04.003Z,102719.09
2023-02-26T11:30:17.019Z,102723.44
2023-02-26T11:32:26.039Z,102727.81
2023-02-26T11:34:32.495Z,102728.75
2023-02-26T11:36:40.590Z,102725.28
2023-02-26T11:38:47.444Z,102734.91
2023-02-26T11:40:56.356Z,102727.06
2023-02-26T11:43:03.676Z,102729.66
2023-02-26T11:45:08.934Z,102730.50
2023-02-26T11:47:16.367Z,102733.09
2023-02-26T11:49:23.834Z,102733.06
2023-02-26T11:51:29.875Z,102728.66
2023-02-26T11:53:36.775Z,102720.69
2023-02-26T11:55:45.888Z,102716.28
2023-02-26T11:57:55.945Z,102728.56
2023-02-26T12:00:00.731Z,102732.03
2023-02-26T12:02:12.518Z,102727.63
2023-02-26T12:04:20.608Z,102735.56
2023-02-26T12:06:26.000Z,102741.69
2023-02-26T12:08:38.570Z,102734.56
2023-02-26T12:10:48.190Z,102725.75
2023-02-26T12:13:09.965Z,102732.69
2023-02-26T12:15:33.228Z,102721.22
2023-02-26T12:17:56.529Z,102735.31
2023-02-26T12:20:15.360Z,102717.81
2023-02-26T12:22:44.621Z,102729.16
2023-02-26T12:25:10.954Z,102724.78
2023-02-26T12:27:25.537Z,102717.63
2023-02-26T12:29:44.257Z,102728.06
2023-02-26T12:32:29.649Z,102728.06
2023-02-26T12:35:12.686Z,102727.94
2023-02-26T12:37:31.327Z,102728.63
2023-02-26T12:39:49.616Z,102735.56
2023-02-26T12:42:10.801Z,102732.78
2023-02-26T12:44:27.431Z,102726.59
2023-02-26T12:46:48.724Z,102727.66
2023-02-26T12:49:07.737Z,102727.78
2023-02-26T12:51:24.521Z,102733.94
2023-02-26T12:54:05.514Z,102728.53
2023-02-26T12:56:36.388Z,102722.44
2023-02-26T12:58:58.902Z,102719.09
2023-02-26T13:01:34.632Z,102708.84
2023-02-26T13:04:07.895Z,102710.66
2023-02-26T13:06:45.319Z,102721.13
2023-02-26T13:09:02.256Z,102725.53
2023-02-26T13:11:23.653Z,102727.41
2023-02-26T13:13:50.091Z,102719.53
2023-02-26T13:16:05.452Z,102721.22
2023-02-26T13:18:20.549Z,102728.16
2023-02-26T13:20:27.734Z,102725.63
2023-02-26T13:22:37.512Z,102727.50
2023-02-26T13:24:53.095Z,102727.59
2023-02-26T13:27:05.869Z,102731.16
2023-02-26T13:29:17.050Z,102719.75
2023-02-26T13:31:27.547Z,102730.34
2023-02-26T13:33:36.038Z,102722.50
2023-02-26T13:35:46.438Z,102723.13
2023-02-26T13:37:55.278Z,102714.22
2023-02-26T13:40:27.945Z,102723.69
2023-02-26T13:42:41.303Z,102717.31
2023-02-26T13:44:56.844Z,102719.91
2023-02-26T13:47:19.526Z,102718.19
2023-02-26T13:49:31.843Z,102714.75
2023-02-26T13:51:41.891Z,102721.78
2023-02-26T13:53:54.670Z,102726.19
2023-02-26T13:56:09.147Z,102716.44
2023-02-26T13:58:31.297Z,102732.28
2023-02-26T14:00:47.463Z,102728.81
2023-02-26T14:02:57.281Z,102725.41
2023-02-26T14:05:02.391Z,102726.25
2023-02-26T14:07:14.623Z,102730.78
2023-02-26T14:09:45.853Z,102719.28
2023-02-26T14:12:02.062Z,102714.97
2023-02-26T14:14:33.978Z,102725.53
2023-02-26T14:16:40.980Z,102718.56
2023-02-26T14:18:52.720Z,102727.34
2023-02-26T14:21:38.957Z,102735.34
2023-02-26T14:23:50.410Z,102733.56
2023-02-26T14:25:55.331Z,102729.84
2023-02-26T14:28:23.560Z,102732.53
2023-02-26T14:30:35.421Z,102724.72
2023-02-26T14:32:50.522Z,102723.81
2023-02-26T14:34:57.955Z,102732.59
2023-02-26T14:37:07.444Z,102728.16
2023-02-26T14:39:26.271Z,102729.03
2023-02-26T14:41:36.712Z,102726.38
2023-02-26T14:43:43.095Z,102725.47
2023-02-26T14:45:47.889Z,102727.13
2023-02-26T14:47:53.281Z,102725.34
2023-02-26T14:50:01.030Z,102730.72
2023-02-26T14:52:26.652Z,102722.69
2023-02-26T14:54:49.742Z,102724.53
2023-02-26T14:57:03.551Z,102723.63
2023-02-26T14:59:23.570Z,102722.81
2023-02-26T15:01:45.906Z,102736.09
2023-02-26T15:04:16.313Z,102735.34
2023-02-26T15:06:46.101Z,102731.81
2023-02-26T15:09:02.601Z,102727.41
2023-02-26T15:11:28.599Z,102740.66
2023-02-26T15:13:48.409Z,102732.84
2023-02-26T15:15:57.222Z,102737.28
2023-02-26T15:18:14.585Z,102738.19
2023-02-26T15:20:23.965Z,102730.28
2023-02-26T15:22:47.003Z,102737.34
2023-02-26T15:24:51.063Z,102732.94
2023-02-26T15:27:00.375Z,102732.94
2023-02-26T15:29:07.381Z,102734.63
2023-02-26T15:31:14.349Z,102731.97
2023-02-26T15:33:20.710Z,102738.06
2023-02-26T15:35:25.509Z,102735.34
2023-02-26T15:37:33.774Z,102740.56
2023-02-26T15:39:37.440Z,102741.47
2023-02-26T15:41:41.688Z,102735.25
2023-02-26T15:43:52.309Z,102732.66
2023-02-26T15:45:58.818Z,102741.50
2023-02-26T15:48:06.664Z,102737.06
2023-02-26T15:50:16.280Z,102730.88
2023-02-26T15:52:23.789Z,102736.03
2023-02-26T15:54:33.666Z,102735.25
2023-02-26T15:56:41.877Z,102735.25
2023-02-26T15:58:51.400Z,102730.03
2023-02-26T16:00:58.889Z,102735.41
2023-02-26T16:03:04.866Z,102740.78
2023-02-26T16:05:10.771Z,102746.22
2023-02-26T16:07:16.253Z,102741.91
2023-02-26T16:09:27.042Z,102739.31
2023-02-26T16:11:36.067Z,102742.84
2023-02-26T16:13:43.628Z,102737.69
2023-02-26T16:15:49.981Z,102751.00
2023-02-26T16:17:57.757Z,102753.66
2023-02-26T16:20:06.038Z,102755.41
2023-02-26T16:22:18.812Z,102745.78
2023-02-26T16:24:24.669Z,102746.63
2023-02-26T16:26:34.625Z,102735.16
2023-02-26T16:28:45.956Z,102743.03
2023-02-26T16:30:54.396Z,102742.97
2023-02-26T16:33:00.433Z,102736.81
2023-02-26T16:35:12.818Z,102742.00
2023-02-26T16:37:24.947Z,102748.06
2023-02-26T16:39:32.581Z,102747.19
2023-02-26T16:41:39.919Z,102743.66
2023-02-26T16:43:56.990Z,102742.78
2023-02-26T16:46:04.890Z,102744.53
2023-02-26T16:48:16.078Z,102741.06
2023-02-26T16:50:21.668Z,102748.97
2023-02-26T16:52:28.527Z,102755.13
2023-02-26T16:54:37.000Z,102755.19
2023-02-26T16:56:44.161Z,102756.06
2023-02-26T16:58:50.879Z,102764.88
2023-02-26T17:01:01.991Z,102761.47
2023-02-26T17:03:13.505Z,102765.94
2023-02-26T17:05:25.147Z,102763.28
2023-02-26T17:07:32.122Z,102772.09
2023-02-26T17:09:38.939Z,102771.25
2023-02-26T17:11:46.140Z,102773.03
2023-02-26T17:14:04.453Z,102769.50
2023-02-26T17:16:13.392Z,102769.53
2023-02-26T17:18:19.145Z,102773.06
2023-02-26T17:20:23.376Z,102777.44
2023-02-26T17:22:30.365Z,102774.78
2023-02-26T17:24:36.488Z,102766.00
2023-02-26T17:26:40.185Z,102773.03
2023-02-26T17:28:44.933Z,102771.25
2023-02-26T17:30:48.663Z,102766.88
2023-02-26T17:32:53.268Z,102768.63
2023-02-26T17:34:59.793Z,102770.38
2023-02-26T17:37:07.763Z,102767.75
2023-02-26T17:39:14.090Z,102772.16
2023-02-26T17:41:20.302Z,102773.94
2023-02-26T17:43:24.214Z,102779.19
2023-02-26T17:45:28.189Z,102778.34
2023-02-26T17:47:31.730Z,102777.41
2023-02-26T17:49:35.381Z,102780.97
2023-02-26T17:51:40.563Z,102778.34
2023-02-26T17:53:46.553Z,102779.25
2023-02-26T17:55:53.569Z,102776.59
2023-02-26T17:57:58.016Z,102786.22
2023-02-26T18:00:01.907Z,102780.97
2023-02-26T18:02:17.714Z,102783.63
2023-02-26T18:04:21.557Z,102778.34
2023-02-26T18:06:27.119Z,102781.00
2023-02-26T18:08:34.968Z,102781.91
2023-02-26T18:10:39.420Z,102781.00
2023-02-26T18:12:43.950Z,102782.78
2023-02-26T18:14:48.253Z,102783.66
2023-02-26T18:16:52.412Z,102788.06
2023-02-26T18:18:56.475Z,102784.56
2023-02-26T18:21:00.478Z,102781.09
2023-02-26T18:23:05.894Z,102787.25
2023-02-26T18:25:14.422Z,102781.16
2023-02-26T18:27:19.885Z,102782.03
2023-02-26T18:29:23.698Z,102780.31
2023-02-26T18:31:34.928Z,102782.97
2023-02-26T18:33:41.515Z,102782.16
2023-02-26T18:35:47.493Z,102780.44
2023-02-26T18:37:53.700Z,102797.16
2023-02-26T18:39:57.491Z,102801.59
2023-02-26T18:42:03.619Z,102800.78
2023-02-26T18:44:07.399Z,102804.34
2023-02-26T18:46:13.699Z,102807.84
2023-02-26T18:48:20.137Z,102803.50
2023-02-26T18:50:25.207Z,102807.03
2023-02-26T18:52:28.614Z,102805.31
2023-02-26T18:54:32.724Z,102807.97
2023-02-26T18:56:37.666Z,102815.03
2023-02-26T18:58:43.232Z,102819.44
2023-02-26T19:00:47.314Z,102814.22
2023-02-26T19:02:51.101Z,102815.09
2023-02-26T19:04:54.941Z,102807.25
2023-02-26T19:06:58.712Z,102811.63
2023-02-26T19:09:03.258Z,102809.00
2023-02-26T19:11:06.972Z,102817.78
2023-02-26T19:13:10.825Z,102816.88
2023-02-26T19:15:15.924Z,102824.78
2023-02-26T19:17:19.264Z,102817.78
2023-02-26T19:19:23.083Z,102816.88
2023-02-26T19:21:28.382Z,102816.88
2023-02-26T19:23:32.376Z,102816.00
2023-02-26T19:25:36.576Z,102815.13
2023-02-26T19:27:40.975Z,102815.13
2023-02-26T19:29:45.281Z,102821.28
2023-02-26T19:31:50.634Z,102813.38
2023-02-26T19:33:54.698Z,102820.41
2023-02-26T19:35:58.763Z,102819.53
2023-02-26T19:38:02.567Z,102824.81
2023-02-26T19:40:10.389Z,102821.31
2023-02-26T19:42:14.640Z,102830.06
2023-02-26T19:44:20.100Z,102831.84
2023-02-26T19:46:24.451Z,102825.72
2023-02-26T19:48:29.770Z,102825.72
2023-02-26T19:50:33.476Z,102820.47
2023-02-26T19:52:37.506Z,102825.75
2023-02-26T19:54:41.192Z,102824.88
2023-02-26T19:56:45.440Z,102817.88
2023-02-26T19:58:50.140Z,102819.59
2023-02-26T20:00:54.814Z,102825.78
2023-02-26T20:02:58.475Z,102831.91
2023-02-26T20:05:05.126Z,102824.03
2023-02-26T20:07:09.531Z,102831.03
2023-02-26T20:09:14.775Z,102830.16
2023-02-26T20:11:18.485Z,102829.28
2023-02-26T20:13:22.857Z,102824.88
2023-02-26T20:15:27.551Z,102836.28
2023-02-26T20:17:31.216Z,102830.09
2023-02-26T20:19:34.985Z,102833.63
2023-02-26T20:21:40.284Z,102838.00
2023-02-26T20:23:44.454Z,102833.63
2023-02-26T20:25:50.639Z,102827.47
2023-02-26T20:27:54.713Z,102840.63
2023-02-26T20:29:58.376Z,102843.25
2023-02-26T20:32:02.325Z,102835.34
2023-02-26T20:34:06.871Z,102842.34
2023-02-26T20:36:11.608Z,102840.59
2023-02-26T20:38:17.862Z,102838.84
2023-02-26T20:40:22.672Z,102833.59
2023-02-26T20:42:26.696Z,102846.75
2023-02-26T20:44:30.668Z,102844.97
2023-02-26T20:46:39.234Z,102853.75
2023-02-26T20:48:44.457Z,102856.34
2023-02-26T20:50:48.836Z,102857.22
2023-02-26T20:52:52.483Z,102854.56
2023-02-26T20:54:57.673Z,102850.19
2023-02-26T20:57:01.070Z,102846.66
2023-02-26T20:59:04.795Z,102856.34
2023-02-26T21:01:08.562Z,102859.84
2023-02-26T21:03:13.509Z,102866.81
2023-02-26T21:05:18.801Z,102865.03
2023-02-26T21:07:23.316Z,102863.28
2023-02-26T21:09:27.166Z,102864.13
2023-02-26T21:11:36.874Z,102872.03
2023-02-26T21:13:41.141Z,102864.13
2023-02-26T21:15:45.010Z,102874.63
2023-02-26T21:17:48.947Z,102869.34
2023-02-26T21:19:53.366Z,102882.50
2023-02-26T21:21:57.238Z,102881.66
2023-02-26T21:24:01.042Z,102877.25
2023-02-26T21:26:04.995Z,102870.22
2023-02-26T21:28:10.194Z,102878.13
2023-02-26T21:30:15.425Z,102879.88
2023-02-26T21:32:19.438Z,102883.41
2023-02-26T21:34:33.604Z,102879.84
2023-02-26T21:36:37.732Z,102882.50
2023-02-26T21:38:42.407Z,102887.75
2023-02-26T21:40:46.288Z,102893.03
2023-02-26T21:42:51.280Z,102882.53
2023-02-26T21:44:56.769Z,102889.56
2023-02-26T21:47:00.598Z,102881.69
2023-02-26T21:49:04.324Z,102889.59
2023-02-26T21:51:08.717Z,102886.97
2023-02-26T21:53:12.438Z,102890.50
2023-02-26T21:55:17.126Z,102893.13
2023-02-26T21:57:20.719Z,102888.75
2023-02-26T21:59:24.882Z,102880.06
2023-02-26T22:01:30.587Z,102885.31
2023-02-26T22:03:34.428Z,102889.69
2023-02-26T22:05:38.680Z,102890.59
2023-02-26T22:07:42.648Z,102889.69
2023-02-26T22:09:47.604Z,102889.69
2023-02-26T22:11:51.214Z,102883.53
2023-02-26T22:13:55.039Z,102883.50
2023-02-26T22:15:58.822Z,102877.31
2023-02-26T22:18:04.302Z,102881.69
2023-02-26T22:20:10.076Z,102882.53
2023-02-26T22:22:14.100Z,102879.84
2023-02-26T22:24:18.063Z,102884.16
2023-02-26T22:26:21.977Z,102876.22
2023-02-26T22:28:25.819Z,102874.44
2023-02-26T22:30:29.502Z,102887.53
2023-02-26T22:32:33.290Z,102878.69
2023-02-26T22:34:38.654Z,102883.03
2023-02-26T22:36:42.471Z,102879.47
2023-02-26T22:38:46.129Z,102881.16
2023-02-26T22:40:49.988Z,102875.88
2023-02-26T22:42:53.694Z,102881.94
2023-02-26T22:44:57.611Z,102888.09
2023-02-26T22:47:01.274Z,102889.81
2023-02-26T22:49:05.062Z,102882.81
2023-02-26T22:51:10.611Z,102878.44
2023-02-26T22:53:14.115Z,102879.31
2023-02-26T22:55:19.016Z,102885.47
2023-02-26T22:57:22.972Z,102888.16
2023-02-26T22:59:26.773Z,102886.47
2023-02-26T23:01:30.746Z,102895.28
2023-02-26T23:03:35.260Z,102904.97
2023-02-26T23:05:39.391Z,102900.63
2023-02-26T23:07:45.201Z,102897.13
2023-02-26T23:09:48.925Z,102903.25
2023-02-26T23:11:52.865Z,102896.22
2023-02-26T23:13:56.488Z,102902.38
2023-02-26T23:16:00.183Z,102910.25
2023-02-26T23:18:03.800Z,102909.41
2023-02-26T23:20:10.309Z,102915.50
2023-02-26T23:22:13.802Z,102919.03
2023-02-26T23:24:19.106Z,102916.41
2023-02-26T23:26:22.622Z,102919.91
2023-02-26T23:28:26.530Z,102914.63
2023-02-26T23:30:30.284Z,102920.78
2023-02-26T23:32:33.981Z,102918.97
2023-02-26T23:34:37.708Z,102917.22
2023-02-26T23:36:42.577Z,102919.84
2023-02-26T23:38:46.100Z,102917.19
2023-02-26T23:40:51.243Z,102915.41
2023-02-26T23:42:54.963Z,102911.91
2023-02-26T23:44:58.505Z,102918.91
2023-02-26T23:47:02.248Z,102918.88
2023-02-26T23:49:06.036Z,102913.63
2023-02-26T23:51:10.509Z,102923.25
2023-02-26T23:53:14.182Z,102927.59
2023-02-26T23:55:17.994Z,102932.84
2023-02-26T23:57:23.311Z,102931.06
2023-02-26T23:59:26.951Z,102937.22
